Time;durP1;ratioP1;P1;durP2;ratioP2;P2;SDS_P1;SDS_P2;PMS_P1;PMS_P2;Temp;Humidity;BMP_temperature;BMP_pressure;BME280_temperature;BME280_humidity;BME280_pressure;Samples;Min_cycle;Max_cycle;Signal;HPM_P1;HPM_P2
2022/08/02 00:02:06;;;;;;;;;;;26.90;96.30;;;;;;5127164;28;19912;-51
2022/08/02 00:04:32;;;;;;;;;;;26.90;96.30;;;;;;5126815;28;19927;-52
2022/08/02 00:06:59;;;;;;;;;;;26.90;96.20;;;;;;5126755;28;19912;-51
2022/08/02 00:09:25;;;;;;;;;;;26.90;96.30;;;;;;5126458;28;19915;-49
2022/08/02 00:11:54;;;;;;;;;;;26.80;96.00;;;;;;5126537;28;19919;-51
2022/08/02 00:14:20;;;;;;;;;;;26.80;96.00;;;;;;5126281;28;20133;-47
2022/08/02 00:16:47;;;;;;;;;;;26.80;96.00;;;;;;5126494;28;20207;-47
2022/08/02 00:19:13;;;;;;;;;;;26.80;96.00;;;;;;5108152;28;19978;-47
2022/08/02 00:21:39;;;;;;;;;;;26.80;95.90;;;;;;5126506;28;19980;-48
2022/08/02 00:24:06;;;;;;;;;;;26.80;96.00;;;;;;5126351;28;19904;-49
2022/08/02 00:26:32;;;;;;;;;;;26.80;96.00;;;;;;5126395;28;20077;-49
2022/08/02 00:28:59;;;;;;;;;;;26.80;95.90;;;;;;5125992;28;19904;-52
2022/08/02 00:31:25;;;;;;;;;;;26.70;95.80;;;;;;5125998;28;19947;-55
2022/08/02 00:33:51;;;;;;;;;;;26.70;95.90;;;;;;5125798;28;19946;-49
2022/08/02 00:36:17;;;;;;;;;;;26.70;96.00;;;;;;5125106;28;19973;-50
2022/08/02 00:38:43;;;;;;;;;;;26.70;95.90;;;;;;5125835;28;19944;-49
2022/08/02 00:41:13;;;;;;;;;;;26.60;95.90;;;;;;5125960;28;19953;-48
2022/08/02 00:43:39;;;;;;;;;;;26.60;95.90;;;;;;5125524;28;19915;-46
2022/08/02 00:46:06;;;;;;;;;;;26.60;95.80;;;;;;5125881;28;19912;-50
2022/08/02 00:48:32;;;;;;;;;;;26.60;95.90;;;;;;5125701;28;19904;-54
2022/08/02 00:50:58;;;;;;;;;;;26.60;96.00;;;;;;5125592;28;19911;-50
2022/08/02 00:53:24;;;;;;;;;;;26.60;95.80;;;;;;5125602;28;19907;-52
2022/08/02 00:55:50;;;;;;;;;;;26.60;96.00;;;;;;5125006;28;19915;-52
2022/08/02 00:58:16;;;;;;;;;;;26.60;96.00;;;;;;5125073;28;20200;-50
2022/08/02 01:00:43;;;;;;;;;;;26.60;96.10;;;;;;5124682;28;19988;-54
2022/08/02 01:03:10;;;;;;;;;;;26.60;96.10;;;;;;5124268;28;20203;-50
2022/08/02 01:05:38;;;;;;;;;;;26.60;96.10;;;;;;5124787;28;19916;-51
2022/08/02 01:08:04;;;;;;;;;;;26.60;96.10;;;;;;5125176;28;19946;-46
2022/08/02 01:10:32;;;;;;;;;;;26.60;96.10;;;;;;5124390;28;20060;-47
2022/08/02 01:12:58;;;;;;;;;;;26.60;96.20;;;;;;5124464;28;19908;-50
2022/08/02 01:15:24;;;;;;;;;;;26.60;96.10;;;;;;5124363;28;19927;-49
2022/08/02 01:17:55;;;;;;;;;;;26.60;96.10;;;;;;5124491;28;19944;-48
2022/08/02 01:20:36;;;;;;;;;;;26.60;96.10;;;;;;5124797;28;19915;-49
2022/08/02 01:23:18;;;;;;;;;;;26.60;96.20;;;;;;5124020;28;20232;-51
2022/08/02 01:26:03;;;;;;;;;;;26.60;96.20;;;;;;5124948;28;19907;-51
2022/08/02 01:28:32;;;;;;;;;;;26.60;96.30;;;;;;5124288;28;19912;-52
2022/08/02 01:31:07;;;;;;;;;;;26.60;96.30;;;;;;5120019;28;19918;-51
2022/08/02 01:33:40;;;;;;;;;;;26.60;96.30;;;;;;5124655;28;19908;-47
2022/08/02 01:36:09;;;;;;;;;;;26.60;96.30;;;;;;5124610;28;19943;-47
2022/08/02 01:38:38;;;;;;;;;;;26.50;96.20;;;;;;5124375;28;19908;-50
2022/08/02 01:41:06;;;;;;;;;;;26.50;96.20;;;;;;5124526;28;19914;-59
2022/08/02 01:43:33;;;;;;;;;;;26.60;96.30;;;;;;5124576;28;20165;-50
2022/08/02 01:46:00;;;;;;;;;;;26.50;96.20;;;;;;5123511;28;20087;-53
2022/08/02 01:48:27;;;;;;;;;;;26.50;96.30;;;;;;5124110;28;19912;-51
2022/08/02 01:50:56;;;;;;;;;;;26.50;96.30;;;;;;5123990;28;19911;-52
2022/08/02 01:53:25;;;;;;;;;;;26.50;96.20;;;;;;5124277;28;19911;-48
2022/08/02 01:55:53;;;;;;;;;;;26.50;96.20;;;;;;5124540;28;19945;-48
2022/08/02 01:58:21;;;;;;;;;;;26.50;96.10;;;;;;5124665;28;19912;-52
2022/08/02 02:00:48;;;;;;;;;;;26.50;96.10;;;;;;5124703;28;19916;-52
2022/08/02 02:03:18;;;;;;;;;;;26.50;96.10;;;;;;5124569;28;19912;-54
2022/08/02 02:05:46;;;;;;;;;;;26.50;96.10;;;;;;5124782;28;19944;-57
2022/08/02 02:08:13;;;;;;;;;;;26.50;96.00;;;;;;5106037;28;20168;-52
2022/08/02 02:10:40;;;;;;;;;;;26.50;96.00;;;;;;5124364;28;19919;-51
2022/08/02 02:13:10;;;;;;;;;;;26.50;96.10;;;;;;5123918;28;20195;-55
2022/08/02 02:15:39;;;;;;;;;;;26.40;96.10;;;;;;5120606;28;19915;-50
2022/08/02 02:18:07;;;;;;;;;;;26.50;96.20;;;;;;5115056;28;19908;-49
2022/08/02 02:20:33;;;;;;;;;;;26.40;96.10;;;;;;5123390;28;19928;-54
2022/08/02 02:23:02;;;;;;;;;;;26.40;96.20;;;;;;5123317;28;20156;-50
2022/08/02 02:25:28;;;;;;;;;;;26.40;96.30;;;;;;5123761;28;19907;-46
2022/08/02 02:27:59;;;;;;;;;;;26.40;96.40;;;;;;5123581;28;20200;-53
2022/08/02 02:30:27;;;;;;;;;;;26.40;96.50;;;;;;5123018;28;19912;-52
2022/08/02 02:32:56;;;;;;;;;;;26.40;96.50;;;;;;5123398;28;20007;-59
2022/08/02 02:35:23;;;;;;;;;;;26.40;96.50;;;;;;5122945;28;20249;-57
2022/08/02 02:37:50;;;;;;;;;;;26.50;96.50;;;;;;5124227;28;19912;-59
2022/08/02 02:40:17;;;;;;;;;;;26.50;96.50;;;;;;5122544;28;19915;-59
2022/08/02 02:42:44;;;;;;;;;;;26.50;96.50;;;;;;5123270;28;19930;-60
2022/08/02 02:45:10;;;;;;;;;;;26.50;96.40;;;;;;5122744;28;19904;-54
2022/08/02 02:47:36;;;;;;;;;;;26.50;96.30;;;;;;5124447;28;19908;-59
2022/08/02 02:50:03;;;;;;;;;;;26.50;96.30;;;;;;5123790;28;20108;-59
2022/08/02 02:52:30;;;;;;;;;;;26.60;96.60;;;;;;5124551;28;19912;-59
2022/08/02 02:54:56;;;;;;;;;;;26.60;96.50;;;;;;5123975;28;19915;-60
2022/08/02 02:57:23;;;;;;;;;;;26.60;96.30;;;;;;5117594;28;19931;-58
2022/08/02 02:59:49;;;;;;;;;;;26.60;96.40;;;;;;5124653;28;20253;-55
2022/08/02 03:02:16;;;;;;;;;;;26.60;96.40;;;;;;5109083;28;19908;-59
2022/08/02 03:04:43;;;;;;;;;;;26.50;96.30;;;;;;5124330;28;19962;-57
2022/08/02 03:07:11;;;;;;;;;;;26.60;96.20;;;;;;5122625;28;19935;-60
2022/08/02 03:09:38;;;;;;;;;;;26.50;96.20;;;;;;5116188;28;20145;-56
2022/08/02 03:12:04;;;;;;;;;;;26.50;96.20;;;;;;5107344;28;19912;-59
2022/08/02 03:14:30;;;;;;;;;;;26.60;96.20;;;;;;5107405;28;19915;-56
2022/08/02 03:16:56;;;;;;;;;;;26.50;96.10;;;;;;5107692;28;20034;-57
2022/08/02 03:19:23;;;;;;;;;;;26.60;96.10;;;;;;5106974;28;19920;-61
2022/08/02 03:21:49;;;;;;;;;;;26.50;96.10;;;;;;5107283;28;19952;-57
2022/08/02 03:24:16;;;;;;;;;;;26.50;96.20;;;;;;5106913;28;19919;-58
2022/08/02 03:26:42;;;;;;;;;;;26.60;96.20;;;;;;5117397;28;19979;-54
2022/08/02 03:29:08;;;;;;;;;;;26.60;96.20;;;;;;5125794;28;19911;-56
2022/08/02 03:31:35;;;;;;;;;;;26.50;96.30;;;;;;5126473;28;19915;-55
2022/08/02 03:34:01;;;;;;;;;;;26.50;96.30;;;;;;5126743;28;19954;-54
2022/08/02 03:36:29;;;;;;;;;;;26.60;96.20;;;;;;5127038;28;19908;-54
2022/08/02 03:38:56;;;;;;;;;;;26.50;96.20;;;;;;5127366;28;20192;-54
2022/08/02 03:41:22;;;;;;;;;;;26.50;96.20;;;;;;5109214;28;19965;-61
2022/08/02 03:43:50;;;;;;;;;;;26.50;96.50;;;;;;5127129;28;19908;-58
2022/08/02 03:46:18;;;;;;;;;;;26.50;96.30;;;;;;5127281;28;19945;-62
2022/08/02 03:48:45;;;;;;;;;;;26.50;96.20;;;;;;5127054;28;19912;-58
2022/08/02 03:51:11;;;;;;;;;;;26.50;96.20;;;;;;5126923;28;19915;-57
2022/08/02 03:53:38;;;;;;;;;;;26.50;96.20;;;;;;5125144;28;19923;-58
2022/08/02 03:56:05;;;;;;;;;;;26.50;96.10;;;;;;5117757;28;19908;-55
2022/08/02 03:58:31;;;;;;;;;;;26.50;96.10;;;;;;5106224;28;20159;-58
2022/08/02 04:00:58;;;;;;;;;;;26.50;96.20;;;;;;5106321;28;20172;-63
2022/08/02 04:03:25;;;;;;;;;;;26.50;96.20;;;;;;5105956;28;19915;-60
2022/08/02 04:05:52;;;;;;;;;;;26.50;96.20;;;;;;5106070;28;19915;-59
2022/08/02 04:08:18;;;;;;;;;;;26.50;96.20;;;;;;5105765;28;20107;-58
2022/08/02 04:13:30;;;;;;;;;;;26.50;96.20;;;;;;5106106;28;19919;-56
2022/08/02 04:16:19;;;;;;;;;;;26.50;96.10;;;;;;5105936;28;20096;-58
2022/08/02 04:18:50;;;;;;;;;;;26.50;96.10;;;;;;5095123;28;19912;-59
2022/08/02 04:21:17;;;;;;;;;;;26.50;96.00;;;;;;5106219;28;19908;-57
2022/08/02 04:23:45;;;;;;;;;;;26.40;95.90;;;;;;5105743;28;19915;-55
2022/08/02 04:26:11;;;;;;;;;;;26.40;95.80;;;;;;5114989;28;19916;-61
2022/08/02 04:28:38;;;;;;;;;;;26.40;95.70;;;;;;5116081;28;19916;-59
2022/08/02 04:31:04;;;;;;;;;;;26.40;95.70;;;;;;5105581;28;20216;-57
2022/08/02 04:33:30;;;;;;;;;;;26.40;95.70;;;;;;5105928;28;19947;-59
2022/08/02 04:35:57;;;;;;;;;;;26.40;95.60;;;;;;5105750;28;19911;-59
2022/08/02 04:38:23;;;;;;;;;;;26.40;95.50;;;;;;5105450;28;19912;-58
2022/08/02 04:40:51;;;;;;;;;;;26.40;95.50;;;;;;5105540;28;19915;-58
2022/08/02 04:43:17;;;;;;;;;;;26.40;95.50;;;;;;5105502;28;19912;-58
2022/08/02 04:45:44;;;;;;;;;;;26.40;95.40;;;;;;5105390;28;19908;-57
2022/08/02 04:48:10;;;;;;;;;;;26.40;95.40;;;;;;5105344;28;19966;-59
2022/08/02 04:50:36;;;;;;;;;;;26.40;95.40;;;;;;5105227;28;20180;-59
2022/08/02 04:53:03;;;;;;;;;;;26.40;95.40;;;;;;5105373;28;19916;-57
2022/08/02 04:55:29;;;;;;;;;;;26.30;95.30;;;;;;5105535;28;19908;-59
2022/08/02 04:57:58;;;;;;;;;;;26.30;95.20;;;;;;5105277;28;19916;-58
2022/08/02 05:00:25;;;;;;;;;;;26.30;95.30;;;;;;5105386;28;19977;-58
2022/08/02 05:02:51;;;;;;;;;;;26.30;95.10;;;;;;5116188;28;19985;-58
2022/08/02 05:05:17;;;;;;;;;;;26.30;95.20;;;;;;5105373;28;19939;-59
2022/08/02 05:07:44;;;;;;;;;;;26.30;95.10;;;;;;5105051;28;19912;-58
2022/08/02 05:10:10;;;;;;;;;;;26.30;95.10;;;;;;5104947;28;19908;-57
2022/08/02 05:12:39;;;;;;;;;;;26.30;95.00;;;;;;5105439;28;20195;-58
2022/08/02 05:15:05;;;;;;;;;;;26.30;95.00;;;;;;5104872;28;20224;-59
2022/08/02 05:17:31;;;;;;;;;;;26.30;95.00;;;;;;5105247;28;19908;-59
2022/08/02 05:19:57;;;;;;;;;;;26.30;94.80;;;;;;5104959;28;19920;-63
2022/08/02 05:22:24;;;;;;;;;;;26.30;94.90;;;;;;5105381;28;19908;-58
2022/08/02 05:24:50;;;;;;;;;;;26.30;94.80;;;;;;5106804;28;20200;-58
2022/08/02 05:27:16;;;;;;;;;;;26.30;94.80;;;;;;5125503;28;19908;-57
2022/08/02 05:29:42;;;;;;;;;;;26.20;94.80;;;;;;5125101;28;19916;-59
2022/08/02 05:32:08;;;;;;;;;;;26.30;94.80;;;;;;5125300;28;19916;-59
2022/08/02 05:34:34;;;;;;;;;;;26.30;94.70;;;;;;5125024;28;19912;-59
2022/08/02 05:37:00;;;;;;;;;;;26.20;94.60;;;;;;5125430;28;20237;-58
2022/08/02 05:39:26;;;;;;;;;;;26.20;94.70;;;;;;5124610;28;19912;-59
2022/08/02 05:41:53;;;;;;;;;;;26.20;94.60;;;;;;5125465;28;19907;-59
2022/08/02 05:44:19;;;;;;;;;;;26.20;94.60;;;;;;5125199;28;20172;-59
2022/08/02 05:46:45;;;;;;;;;;;26.20;94.50;;;;;;5125114;28;19908;-59
2022/08/02 05:49:11;;;;;;;;;;;26.20;94.60;;;;;;5125155;28;20294;-60
2022/08/02 05:51:53;;;;;;;;;;;26.20;94.60;;;;;;5125171;28;20179;-59
2022/08/02 05:54:39;;;;;;;;;;;26.20;94.50;;;;;;5124729;28;19918;-58
2022/08/02 05:57:29;;;;;;;;;;;26.20;94.50;;;;;;5124976;28;19947;-58
2022/08/02 05:59:57;;;;;;;;;;;26.20;94.40;;;;;;5072677;28;20231;-59
2022/08/02 06:02:24;;;;;;;;;;;26.20;94.50;;;;;;5125188;28;19915;-60
2022/08/02 06:05:03;;;;;;;;;;;26.20;94.40;;;;;;5124015;28;20208;-60
2022/08/02 06:07:31;;;;;;;;;;;26.20;94.40;;;;;;5125156;28;19908;-60
2022/08/02 06:09:58;;;;;;;;;;;26.20;94.40;;;;;;5124567;28;19919;-58
2022/08/02 06:12:28;;;;;;;;;;;26.20;94.30;;;;;;5125140;28;20240;-59
2022/08/02 06:14:55;;;;;;;;;;;26.20;94.30;;;;;;5124678;28;19912;-57
2022/08/02 06:17:21;;;;;;;;;;;26.20;94.40;;;;;;5125001;28;19915;-58
2022/08/02 06:19:47;;;;;;;;;;;26.20;94.40;;;;;;5124588;28;19920;-57
2022/08/02 06:22:15;;;;;;;;;;;26.20;94.40;;;;;;5125180;28;20241;-56
2022/08/02 06:24:44;;;;;;;;;;;26.20;94.30;;;;;;5124431;28;19919;-60
2022/08/02 06:27:14;;;;;;;;;;;26.20;94.40;;;;;;5124886;28;19967;-59
2022/08/02 06:29:41;;;;;;;;;;;26.20;94.50;;;;;;5124562;28;19908;-59
2022/08/02 06:32:08;;;;;;;;;;;26.20;94.50;;;;;;5124720;28;19919;-59
2022/08/02 06:34:38;;;;;;;;;;;26.20;94.50;;;;;;5128280;28;19918;-58
2022/08/02 06:37:24;;;;;;;;;;;26.20;94.50;;;;;;5128751;28;19915;-59
2022/08/02 06:39:53;;;;;;;;;;;26.20;94.50;;;;;;5128130;28;19911;-60
2022/08/02 06:42:25;;;;;;;;;;;26.20;94.60;;;;;;5128816;28;19915;-58
2022/08/02 06:44:52;;;;;;;;;;;26.20;94.50;;;;;;5128084;28;19934;-58
2022/08/02 06:47:18;;;;;;;;;;;26.20;94.50;;;;;;5128598;28;20216;-58
2022/08/02 06:49:44;;;;;;;;;;;26.20;94.60;;;;;;5128326;28;19919;-59
2022/08/02 06:52:10;;;;;;;;;;;26.20;94.50;;;;;;5128225;28;19912;-59
2022/08/02 06:54:37;;;;;;;;;;;26.20;94.40;;;;;;5128301;28;20100;-59
2022/08/02 06:57:04;;;;;;;;;;;26.20;94.50;;;;;;5128328;28;19935;-59
2022/08/02 06:59:30;;;;;;;;;;;26.20;94.60;;;;;;5127903;28;19915;-62
2022/08/02 07:01:58;;;;;;;;;;;26.20;94.50;;;;;;5128277;28;19915;-58
2022/08/02 07:04:24;;;;;;;;;;;26.20;94.50;;;;;;5127809;28;19975;-57
2022/08/02 07:06:50;;;;;;;;;;;26.10;94.60;;;;;;5127982;28;19942;-57
2022/08/02 07:09:16;;;;;;;;;;;26.20;94.70;;;;;;5127836;28;19919;-57
2022/08/02 07:11:43;;;;;;;;;;;26.10;94.80;;;;;;5128019;28;19978;-58
2022/08/02 07:14:09;;;;;;;;;;;26.10;94.70;;;;;;5127715;28;19947;-57
2022/08/02 07:16:35;;;;;;;;;;;26.10;94.70;;;;;;5127706;28;20129;-60
2022/08/02 07:19:01;;;;;;;;;;;26.10;94.70;;;;;;5127356;28;19922;-61
2022/08/02 07:21:27;;;;;;;;;;;26.10;94.60;;;;;;5127931;28;20180;-59
2022/08/02 07:23:53;;;;;;;;;;;26.10;94.60;;;;;;5127668;28;19943;-60
2022/08/02 07:26:19;;;;;;;;;;;26.10;94.50;;;;;;5127666;28;19915;-58
2022/08/02 07:28:45;;;;;;;;;;;26.10;94.50;;;;;;5127367;28;19912;-59
2022/08/02 07:31:11;;;;;;;;;;;26.10;94.50;;;;;;5127365;28;19947;-58
2022/08/02 07:33:38;;;;;;;;;;;26.10;94.40;;;;;;5127340;28;19916;-58
2022/08/02 07:36:04;;;;;;;;;;;26.10;94.40;;;;;;5127580;28;19904;-59
2022/08/02 07:38:30;;;;;;;;;;;26.10;94.30;;;;;;5127114;28;20138;-60
2022/08/02 07:40:56;;;;;;;;;;;26.10;94.30;;;;;;5127426;28;19949;-56
2022/08/02 07:43:22;;;;;;;;;;;26.10;94.20;;;;;;5127122;28;19912;-58
2022/08/02 07:45:48;;;;;;;;;;;26.10;94.20;;;;;;5125922;28;19949;-59
2022/08/02 07:48:14;;;;;;;;;;;26.00;94.10;;;;;;5127081;28;19930;-59
2022/08/02 07:50:41;;;;;;;;;;;26.00;94.10;;;;;;5127021;28;19979;-57
2022/08/02 07:53:07;;;;;;;;;;;26.10;94.10;;;;;;5126893;28;19916;-58
2022/08/02 07:55:33;;;;;;;;;;;26.10;94.00;;;;;;5127012;28;19927;-59
2022/08/02 07:57:59;;;;;;;;;;;26.10;94.10;;;;;;5127025;28;19946;-58
2022/08/02 08:00:25;;;;;;;;;;;26.00;94.00;;;;;;5126652;28;19904;-59
2022/08/02 08:02:51;;;;;;;;;;;26.00;94.00;;;;;;5126805;28;19919;-58
2022/08/02 08:05:17;;;;;;;;;;;26.00;93.90;;;;;;5126802;28;19908;-58
2022/08/02 08:07:44;;;;;;;;;;;26.10;94.00;;;;;;5126699;28;19918;-60
2022/08/02 08:10:10;;;;;;;;;;;26.00;93.90;;;;;;5126460;28;19986;-59
2022/08/02 08:12:36;;;;;;;;;;;26.00;94.00;;;;;;5127013;28;19908;-59
2022/08/02 08:15:03;;;;;;;;;;;26.00;94.10;;;;;;5126499;28;19951;-56
2022/08/02 08:17:29;;;;;;;;;;;26.00;94.50;;;;;;5126842;28;19908;-60
2022/08/02 08:19:55;;;;;;;;;;;25.90;94.70;;;;;;5126319;28;19965;-59
2022/08/02 08:22:21;;;;;;;;;;;26.00;95.00;;;;;;5126866;28;19915;-58
2022/08/02 08:24:48;;;;;;;;;;;25.90;95.20;;;;;;5126475;28;19911;-59
2022/08/02 08:27:14;;;;;;;;;;;25.90;95.40;;;;;;5126602;28;20195;-59
2022/08/02 08:29:41;;;;;;;;;;;25.90;95.40;;;;;;5126243;28;19912;-59
2022/08/02 08:32:07;;;;;;;;;;;25.90;95.50;;;;;;5126325;28;19946;-58
2022/08/02 08:34:34;;;;;;;;;;;25.90;95.40;;;;;;5126289;28;19911;-59
2022/08/02 08:37:02;;;;;;;;;;;25.90;95.50;;;;;;5126500;28;19967;-59
2022/08/02 08:39:28;;;;;;;;;;;25.90;95.50;;;;;;5125809;28;20093;-58
2022/08/02 08:41:54;;;;;;;;;;;25.80;95.50;;;;;;5126405;28;19915;-59
2022/08/02 08:44:20;;;;;;;;;;;25.90;95.50;;;;;;5125915;28;20245;-59
2022/08/02 08:46:48;;;;;;;;;;;25.80;95.50;;;;;;5126137;28;19908;-59
2022/08/02 08:49:47;;;;;;;;;;;25.80;95.50;;;;;;5125994;28;19908;-59
2022/08/02 08:52:13;;;;;;;;;;;25.80;95.50;;;;;;5091599;28;20196;-59
2022/08/02 08:54:40;;;;;;;;;;;25.70;95.60;;;;;;5125751;28;19912;-59
2022/08/02 08:57:07;;;;;;;;;;;25.60;95.70;;;;;;5125851;28;20184;-60
2022/08/02 08:59:33;;;;;;;;;;;25.60;95.70;;;;;;5125502;28;19908;-60
2022/08/02 09:02:00;;;;;;;;;;;25.50;95.60;;;;;;5125903;28;19907;-60
2022/08/02 09:04:26;;;;;;;;;;;25.50;95.60;;;;;;5125538;28;20104;-59
2022/08/02 09:06:52;;;;;;;;;;;25.50;95.50;;;;;;5125822;28;19948;-58
2022/08/02 09:09:18;;;;;;;;;;;25.50;95.50;;;;;;5125310;28;19919;-59
2022/08/02 09:11:44;;;;;;;;;;;25.50;95.50;;;;;;5125762;28;20207;-57
2022/08/02 09:14:11;;;;;;;;;;;25.50;95.50;;;;;;5125341;28;20188;-59
2022/08/02 09:16:38;;;;;;;;;;;25.60;95.50;;;;;;5125592;28;20184;-59
2022/08/02 09:19:17;;;;;;;;;;;25.50;95.40;;;;;;5125119;28;20192;-59
2022/08/02 09:21:43;;;;;;;;;;;25.50;95.30;;;;;;5125345;28;19980;-58
2022/08/02 09:24:28;;;;;;;;;;;25.50;95.30;;;;;;5125293;28;19912;-56
2022/08/02 09:26:54;;;;;;;;;;;25.50;95.40;;;;;;5125343;28;20129;-60
2022/08/02 09:29:21;;;;;;;;;;;25.50;95.40;;;;;;5125102;28;19952;-59
2022/08/02 09:31:48;;;;;;;;;;;25.50;95.40;;;;;;5125527;28;19911;-58
2022/08/02 09:34:14;;;;;;;;;;;25.50;95.40;;;;;;5125078;28;19937;-59
2022/08/02 09:36:42;;;;;;;;;;;25.40;95.40;;;;;;5125668;28;19982;-59
2022/08/02 09:39:09;;;;;;;;;;;25.40;95.40;;;;;;5125178;28;19908;-59
2022/08/02 09:41:42;;;;;;;;;;;25.40;95.40;;;;;;5125094;28;19998;-59
2022/08/02 09:44:10;;;;;;;;;;;25.40;95.30;;;;;;5125137;28;19908;-59
2022/08/02 09:46:43;;;;;;;;;;;25.40;95.40;;;;;;5125300;28;19915;-59
2022/08/02 09:49:11;;;;;;;;;;;25.40;95.40;;;;;;5125024;28;19908;-61
2022/08/02 09:51:38;;;;;;;;;;;25.30;95.50;;;;;;5124674;28;19911;-60
2022/08/02 09:54:06;;;;;;;;;;;25.40;95.50;;;;;;5124831;28;19908;-62
2022/08/02 09:56:58;;;;;;;;;;;25.40;95.40;;;;;;5125119;28;19915;-59
2022/08/02 09:59:25;;;;;;;;;;;25.30;95.40;;;;;;5119949;28;19919;-59
2022/08/02 10:01:52;;;;;;;;;;;25.40;95.50;;;;;;5125097;28;19908;-58
2022/08/02 10:04:23;;;;;;;;;;;25.40;95.40;;;;;;5124751;28;19907;-59
2022/08/02 10:06:50;;;;;;;;;;;25.40;95.30;;;;;;5124879;28;19915;-58
2022/08/02 10:09:16;;;;;;;;;;;25.40;95.40;;;;;;5128276;28;19957;-58
2022/08/02 10:11:43;;;;;;;;;;;25.40;95.30;;;;;;5129054;28;20073;-60
2022/08/02 10:14:09;;;;;;;;;;;25.40;95.40;;;;;;5128664;28;19911;-57
2022/08/02 10:16:37;;;;;;;;;;;25.40;95.40;;;;;;5129228;28;20203;-59
2022/08/02 10:19:03;;;;;;;;;;;25.40;95.40;;;;;;5128748;28;19961;-59
2022/08/02 10:21:48;;;;;;;;;;;25.40;95.30;;;;;;5128866;28;19908;-60
2022/08/02 10:24:14;;;;;;;;;;;25.40;95.30;;;;;;5129162;28;19934;-59
2022/08/02 10:26:42;;;;;;;;;;;25.40;95.30;;;;;;5129099;28;19907;-59
2022/08/02 10:29:09;;;;;;;;;;;25.40;95.30;;;;;;5128551;28;20085;-59
2022/08/02 10:31:44;;;;;;;;;;;25.40;95.30;;;;;;5128817;28;19919;-60
2022/08/02 10:34:12;;;;;;;;;;;25.40;95.30;;;;;;5128354;28;19912;-58
2022/08/02 10:36:38;;;;;;;;;;;25.40;95.30;;;;;;5120315;28;20188;-59
2022/08/02 10:39:05;;;;;;;;;;;25.40;95.30;;;;;;5128293;28;19919;-59
2022/08/02 10:41:50;;;;;;;;;;;25.50;95.30;;;;;;5128675;28;19908;-56
2022/08/02 10:44:35;;;;;;;;;;;25.40;95.20;;;;;;5128387;28;20025;-59
2022/08/02 10:47:13;;;;;;;;;;;25.40;95.30;;;;;;5128513;28;19908;-59
2022/08/02 10:49:56;;;;;;;;;;;25.40;95.30;;;;;;5128110;28;19919;-58
2022/08/02 10:52:26;;;;;;;;;;;25.40;95.40;;;;;;5128465;28;19912;-60
2022/08/02 10:54:59;;;;;;;;;;;25.40;95.30;;;;;;5128143;28;19935;-59
2022/08/02 10:57:25;;;;;;;;;;;25.40;95.20;;;;;;5128307;28;19986;-60
2022/08/02 10:59:57;;;;;;;;;;;25.50;95.30;;;;;;5127963;28;20227;-59
2022/08/02 11:02:40;;;;;;;;;;;25.40;95.20;;;;;;5128472;28;20184;-60
2022/08/02 11:05:06;;;;;;;;;;;25.40;95.30;;;;;;5127857;28;20165;-57
2022/08/02 11:07:33;;;;;;;;;;;25.50;95.30;;;;;;5128346;28;20195;-56
2022/08/02 11:10:18;;;;;;;;;;;25.50;95.30;;;;;;5127781;28;19971;-57
2022/08/02 11:13:01;;;;;;;;;;;25.50;95.30;;;;;;5127408;28;20200;-57
2022/08/02 11:15:28;;;;;;;;;;;25.50;95.30;;;;;;5127762;28;20112;-58
2022/08/02 11:17:55;;;;;;;;;;;25.50;95.40;;;;;;5127545;28;20085;-58
2022/08/02 11:20:22;;;;;;;;;;;25.50;95.40;;;;;;5127261;28;19916;-60
2022/08/02 11:22:50;;;;;;;;;;;25.50;95.40;;;;;;5127700;28;19946;-60
2022/08/02 11:25:24;;;;;;;;;;;25.50;95.70;;;;;;5126960;28;19911;-58
2022/08/02 11:27:55;;;;;;;;;;;25.50;95.40;;;;;;5107009;28;19919;-56
2022/08/02 11:30:21;;;;;;;;;;;25.50;95.40;;;;;;5106952;28;19904;-58
2022/08/02 11:32:48;;;;;;;;;;;25.50;95.40;;;;;;5098641;28;19920;-58
2022/08/02 11:35:14;;;;;;;;;;;25.50;95.60;;;;;;5106774;28;20204;-58
2022/08/02 11:37:42;;;;;;;;;;;25.50;95.60;;;;;;5106881;28;19912;-58
2022/08/02 11:40:09;;;;;;;;;;;25.50;95.60;;;;;;5116813;28;19915;-59
2022/08/02 11:42:39;;;;;;;;;;;25.50;95.60;;;;;;5127359;28;19909;-58
2022/08/02 11:45:06;;;;;;;;;;;25.50;95.60;;;;;;5127005;28;19908;-59
2022/08/02 11:47:32;;;;;;;;;;;25.50;95.70;;;;;;5127340;28;19953;-60
2022/08/02 11:50:09;;;;;;;;;;;25.50;95.70;;;;;;5126751;28;19916;-59
2022/08/02 11:52:36;;;;;;;;;;;25.50;95.60;;;;;;5126764;28;19933;-60
2022/08/02 11:55:03;;;;;;;;;;;25.50;95.90;;;;;;5124968;28;19943;-60
2022/08/02 11:57:29;;;;;;;;;;;25.50;95.80;;;;;;5125289;28;19935;-60
2022/08/02 11:59:55;;;;;;;;;;;25.50;95.70;;;;;;5124488;28;19919;-59
2022/08/02 12:02:26;;;;;;;;;;;25.50;95.70;;;;;;5124751;28;19915;-60
2022/08/02 12:04:52;;;;;;;;;;;25.50;95.80;;;;;;5124665;28;19911;-59
2022/08/02 12:07:24;;;;;;;;;;;25.50;95.80;;;;;;5124596;28;19970;-59
2022/08/02 12:09:50;;;;;;;;;;;25.50;95.80;;;;;;5125939;28;19915;-60
2022/08/02 12:12:16;;;;;;;;;;;25.50;95.90;;;;;;5126722;28;19912;-60
2022/08/02 12:14:43;;;;;;;;;;;25.50;95.90;;;;;;5126536;28;19908;-60
2022/08/02 12:19:53;;;;;;;;;;;25.50;96.00;;;;;;5125681;28;19964;-59
2022/08/02 12:22:24;;;;;;;;;;;25.60;96.10;;;;;;5126661;28;19911;-60
2022/08/02 12:24:51;;;;;;;;;;;25.50;96.10;;;;;;5126101;28;19915;-60
2022/08/02 12:27:34;;;;;;;;;;;25.50;96.20;;;;;;5126408;28;19915;-59
2022/08/02 12:30:04;;;;;;;;;;;25.60;96.30;;;;;;5125615;28;19983;-59
2022/08/02 12:32:30;;;;;;;;;;;25.60;96.60;;;;;;5126361;28;19951;-60
2022/08/02 12:35:02;;;;;;;;;;;25.60;96.40;;;;;;5125991;28;19942;-60
2022/08/02 12:37:28;;;;;;;;;;;25.60;96.50;;;;;;5126210;28;19949;-60
2022/08/02 12:39:54;;;;;;;;;;;25.60;96.50;;;;;;5126075;28;19911;-60
2022/08/02 12:42:21;;;;;;;;;;;25.60;96.50;;;;;;5126207;28;19930;-60
2022/08/02 12:44:54;;;;;;;;;;;25.60;96.50;;;;;;5125571;28;19953;-59
2022/08/02 12:47:21;;;;;;;;;;;25.60;96.50;;;;;;5126076;28;19950;-59
2022/08/02 12:50:07;;;;;;;;;;;25.60;96.70;;;;;;5125522;28;19947;-60
2022/08/02 12:52:33;;;;;;;;;;;25.60;96.60;;;;;;5126329;28;19999;-60
2022/08/02 12:54:59;;;;;;;;;;;25.70;96.60;;;;;;5125638;28;19918;-60
2022/08/02 12:57:25;;;;;;;;;;;25.60;96.70;;;;;;5126291;28;20096;-60
2022/08/02 12:59:52;;;;;;;;;;;25.60;96.60;;;;;;5125670;28;19935;-60
2022/08/02 13:02:19;;;;;;;;;;;25.70;96.60;;;;;;5126159;28;19915;-59
2022/08/02 13:04:45;;;;;;;;;;;25.60;96.60;;;;;;5125446;28;19908;-60
2022/08/02 13:07:11;;;;;;;;;;;25.70;96.60;;;;;;5125938;28;19949;-61
2022/08/02 13:09:39;;;;;;;;;;;25.60;96.60;;;;;;5117000;28;19943;-60
2022/08/02 13:12:06;;;;;;;;;;;25.70;96.70;;;;;;5126002;28;19912;-60
2022/08/02 13:14:33;;;;;;;;;;;25.60;96.70;;;;;;5125568;28;20197;-59
2022/08/02 13:16:59;;;;;;;;;;;25.60;96.70;;;;;;5125690;28;19907;-60
2022/08/02 13:19:25;;;;;;;;;;;25.70;96.80;;;;;;5125228;28;19919;-59
2022/08/02 13:21:51;;;;;;;;;;;25.70;96.90;;;;;;5125713;28;19907;-63
2022/08/02 13:24:17;;;;;;;;;;;25.70;97.10;;;;;;5125302;28;19908;-60
2022/08/02 13:26:44;;;;;;;;;;;25.70;97.10;;;;;;5125130;28;19939;-58
2022/08/02 13:29:12;;;;;;;;;;;25.70;97.00;;;;;;5125596;28;19915;-60
2022/08/02 13:31:38;;;;;;;;;;;25.70;97.00;;;;;;5125519;28;19966;-60
2022/08/02 13:34:05;;;;;;;;;;;25.70;97.00;;;;;;5125054;28;19907;-58
2022/08/02 13:36:32;;;;;;;;;;;25.70;97.00;;;;;;5125666;28;20082;-59
2022/08/02 13:38:59;;;;;;;;;;;25.70;97.00;;;;;;5125150;28;19918;-59
2022/08/02 13:41:26;;;;;;;;;;;25.70;97.10;;;;;;5124849;28;19908;-59
2022/08/02 13:43:52;;;;;;;;;;;25.70;97.10;;;;;;5124592;28;20008;-59
2022/08/02 13:46:19;;;;;;;;;;;25.70;97.00;;;;;;5125613;28;19964;-59
2022/08/02 13:48:45;;;;;;;;;;;25.70;97.10;;;;;;5125158;28;19916;-58
2022/08/02 13:51:12;;;;;;;;;;;25.70;96.80;;;;;;5125272;28;19963;-59
2022/08/02 13:53:38;;;;;;;;;;;25.80;97.00;;;;;;5116619;28;20255;-59
2022/08/02 13:56:04;;;;;;;;;;;25.80;97.00;;;;;;5125113;28;20175;-59
2022/08/02 13:58:30;;;;;;;;;;;25.80;97.00;;;;;;5124709;28;19911;-60
2022/08/02 14:00:57;;;;;;;;;;;25.80;97.00;;;;;;5125083;28;19911;-59
2022/08/02 14:03:23;;;;;;;;;;;25.80;97.00;;;;;;5124839;28;20089;-60
2022/08/02 14:05:49;;;;;;;;;;;25.80;97.00;;;;;;5106730;28;19908;-60
2022/08/02 14:08:19;;;;;;;;;;;25.80;97.00;;;;;;5124967;28;19912;-59
2022/08/02 14:10:50;;;;;;;;;;;25.80;97.10;;;;;;5125017;28;19910;-60
2022/08/02 14:13:16;;;;;;;;;;;25.80;97.10;;;;;;5125294;28;19934;-59
2022/08/02 14:15:42;;;;;;;;;;;25.80;97.40;;;;;;5125250;28;19945;-60
2022/08/02 14:18:09;;;;;;;;;;;25.70;97.20;;;;;;5106361;28;19912;-60
2022/08/02 14:20:35;;;;;;;;;;;25.70;97.30;;;;;;5124411;28;19916;-60
2022/08/02 14:23:01;;;;;;;;;;;25.70;97.40;;;;;;5124878;28;19907;-59
2022/08/02 14:25:27;;;;;;;;;;;25.70;97.40;;;;;;5124347;28;20104;-58
2022/08/02 14:27:53;;;;;;;;;;;25.80;97.30;;;;;;5124449;28;20032;-59